sensor_id;sensor_type;location;lat;lon;timestamp;temperature;humidity
506;DHT22;551;48.524;9.056;2023-04-03T00:02:12;6.30;1.00
506;DHT22;551;48.524;9.056;2023-04-03T00:04:37;6.30;1.00
506;DHT22;551;48.524;9.056;2023-04-03T00:07:02;6.30;1.00
506;DHT22;551;48.524;9.056;2023-04-03T00:09:28;6.40;1.00
506;DHT22;551;48.524;9.056;2023-04-03T00:11:53;6.40;1.00
506;DHT22;551;48.524;9.056;2023-04-03T00:14:19;6.30;1.00
506;DHT22;551;48.524;9.056;2023-04-03T00:16:45;6.30;1.00
506;DHT22;551;48.524;9.056;2023-04-03T00:19:10;6.30;1.00
506;DHT22;551;48.524;9.056;2023-04-03T00:21:37;6.30;1.00
506;DHT22;551;48.524;9.056;2023-04-03T00:24:03;6.30;1.00
506;DHT22;551;48.524;9.056;2023-04-03T00:26:28;6.30;1.00
506;DHT22;551;48.524;9.056;2023-04-03T00:28:54;6.20;1.00
506;DHT22;551;48.524;9.056;2023-04-03T00:31:19;6.30;1.00
506;DHT22;551;48.524;9.056;2023-04-03T00:33:45;6.30;1.00
506;DHT22;551;48.524;9.056;2023-04-03T00:36:10;6.20;1.00
506;DHT22;551;48.524;9.056;2023-04-03T00:38:37;6.20;1.00
506;DHT22;551;48.524;9.056;2023-04-03T00:41:03;6.20;1.00
506;DHT22;551;48.524;9.056;2023-04-03T00:43:28;6.20;1.00
506;DHT22;551;48.524;9.056;2023-04-03T00:45:56;6.20;1.00
506;DHT22;551;48.524;9.056;2023-04-03T00:50:47;6.10;1.00
506;DHT22;551;48.524;9.056;2023-04-03T00:53:19;6.10;1.00
506;DHT22;551;48.524;9.056;2023-04-03T00:55:47;6.10;1.00
506;DHT22;551;48.524;9.056;2023-04-03T00:58:14;6.10;1.00
506;DHT22;551;48.524;9.056;2023-04-03T01:00:44;6.10;1.00
506;DHT22;551;48.524;9.056;2023-04-03T01:03:11;6.20;1.00
506;DHT22;551;48.524;9.056;2023-04-03T01:05:37;6.20;1.00
506;DHT22;551;48.524;9.056;2023-04-03T01:08:02;6.10;1.00
506;DHT22;551;48.524;9.056;2023-04-03T01:10:28;6.10;1.00
506;DHT22;551;48.524;9.056;2023-04-03T01:12:54;6.10;1.00
506;DHT22;551;48.524;9.056;2023-04-03T01:15:22;6.10;1.00
506;DHT22;551;48.524;9.056;2023-04-03T01:17:53;6.20;1.00
506;DHT22;551;48.524;9.056;2023-04-03T01:25:29;6.00;1.00
506;DHT22;551;48.524;9.056;2023-04-03T01:27:54;5.90;1.00
506;DHT22;551;48.524;9.056;2023-04-03T01:30:23;6.00;1.00
506;DHT22;551;48.524;9.056;2023-04-03T01:32:51;6.00;1.00
506;DHT22;551;48.524;9.056;2023-04-03T01:35:16;5.90;1.00
506;DHT22;551;48.524;9.056;2023-04-03T01:37:42;5.90;1.00
506;DHT22;551;48.524;9.056;2023-04-03T01:40:08;5.90;1.00
506;DHT22;551;48.524;9.056;2023-04-03T01:42:33;5.90;1.00
506;DHT22;551;48.524;9.056;2023-04-03T01:44:59;5.90;1.00
506;DHT22;551;48.524;9.056;2023-04-03T01:47:25;5.80;1.00
506;DHT22;551;48.524;9.056;2023-04-03T01:49:50;5.80;1.00
506;DHT22;551;48.524;9.056;2023-04-03T01:52:16;5.80;1.00
506;DHT22;551;48.524;9.056;2023-04-03T01:54:41;5.80;1.00
506;DHT22;551;48.524;9.056;2023-04-03T01:57:07;5.80;1.00
506;DHT22;551;48.524;9.056;2023-04-03T01:59:32;5.80;1.00
506;DHT22;551;48.524;9.056;2023-04-03T02:01:58;5.80;1.00
506;DHT22;551;48.524;9.056;2023-04-03T02:04:23;5.80;1.00
506;DHT22;551;48.524;9.056;2023-04-03T02:06:49;5.80;1.00
506;DHT22;551;48.524;9.056;2023-04-03T02:09:14;5.80;1.00
506;DHT22;551;48.524;9.056;2023-04-03T02:11:40;5.70;1.00
506;DHT22;551;48.524;9.056;2023-04-03T02:14:06;5.70;1.00
506;DHT22;551;48.524;9.056;2023-04-03T02:16:31;5.80;1.00
506;DHT22;551;48.524;9.056;2023-04-03T02:18:57;5.70;1.00
506;DHT22;551;48.524;9.056;2023-04-03T02:21:22;5.70;1.00
506;DHT22;551;48.524;9.056;2023-04-03T02:23:48;5.70;1.00
506;DHT22;551;48.524;9.056;2023-04-03T02:26:15;5.60;1.00
506;DHT22;551;48.524;9.056;2023-04-03T02:28:42;5.60;1.00
506;DHT22;551;48.524;9.056;2023-04-03T02:31:08;5.60;1.00
506;DHT22;551;48.524;9.056;2023-04-03T02:33:35;5.70;1.00
506;DHT22;551;48.524;9.056;2023-04-03T02:36:02;5.60;1.00
506;DHT22;551;48.524;9.056;2023-04-03T02:38:29;5.60;1.00
506;DHT22;551;48.524;9.056;2023-04-03T02:41:00;5.60;1.00
506;DHT22;551;48.524;9.056;2023-04-03T02:43:26;5.70;1.00
506;DHT22;551;48.524;9.056;2023-04-03T02:45:51;5.70;1.00
506;DHT22;551;48.524;9.056;2023-04-03T02:48:17;5.60;1.00
506;DHT22;551;48.524;9.056;2023-04-03T02:50:42;5.70;1.00
506;DHT22;551;48.524;9.056;2023-04-03T02:53:08;5.60;1.00
506;DHT22;551;48.524;9.056;2023-04-03T02:55:33;5.60;1.00
506;DHT22;551;48.524;9.056;2023-04-03T02:57:59;5.60;1.00
506;DHT22;551;48.524;9.056;2023-04-03T03:00:24;5.60;1.00
506;DHT22;551;48.524;9.056;2023-04-03T03:02:53;5.60;1.00
506;DHT22;551;48.524;9.056;2023-04-03T03:05:18;5.60;1.00
506;DHT22;551;48.524;9.056;2023-04-03T03:07:44;5.50;1.00
506;DHT22;551;48.524;9.056;2023-04-03T03:10:09;5.60;1.00
506;DHT22;551;48.524;9.056;2023-04-03T03:12:35;5.50;1.00
506;DHT22;551;48.524;9.056;2023-04-03T03:15:01;5.50;1.00
506;DHT22;551;48.524;9.056;2023-04-03T03:17:26;5.50;1.00
506;DHT22;551;48.524;9.056;2023-04-03T03:19:52;5.50;1.00
506;DHT22;551;48.524;9.056;2023-04-03T03:22:17;5.50;1.00
506;DHT22;551;48.524;9.056;2023-04-03T03:24:43;5.50;1.00
506;DHT22;551;48.524;9.056;2023-04-03T03:27:08;5.50;1.00
506;DHT22;551;48.524;9.056;2023-04-03T03:29:34;5.50;1.00
506;DHT22;551;48.524;9.056;2023-04-03T03:32:00;5.50;1.00
506;DHT22;551;48.524;9.056;2023-04-03T03:34:25;5.50;1.00
506;DHT22;551;48.524;9.056;2023-04-03T03:36:51;5.50;1.00
506;DHT22;551;48.524;9.056;2023-04-03T03:39:16;5.40;1.00
506;DHT22;551;48.524;9.056;2023-04-03T03:41:42;5.40;1.00
506;DHT22;551;48.524;9.056;2023-04-03T03:44:07;5.40;1.00
506;DHT22;551;48.524;9.056;2023-04-03T03:46:33;5.40;1.00
506;DHT22;551;48.524;9.056;2023-04-03T03:48:58;5.40;1.00
506;DHT22;551;48.524;9.056;2023-04-03T03:51:24;5.40;1.00
506;DHT22;551;48.524;9.056;2023-04-03T03:53:50;5.40;1.00
506;DHT22;551;48.524;9.056;2023-04-03T03:56:16;5.40;1.00
506;DHT22;551;48.524;9.056;2023-04-03T03:58:41;5.50;1.00
506;DHT22;551;48.524;9.056;2023-04-03T04:01:07;5.40;1.00
506;DHT22;551;48.524;9.056;2023-04-03T04:03:33;5.40;1.00
506;DHT22;551;48.524;9.056;2023-04-03T04:05:59;5.40;1.00
506;DHT22;551;48.524;9.056;2023-04-03T04:08:27;5.40;1.00
506;DHT22;551;48.524;9.056;2023-04-03T04:10:53;5.40;1.00
506;DHT22;551;48.524;9.056;2023-04-03T04:13:18;5.40;1.00
506;DHT22;551;48.524;9.056;2023-04-03T04:15:44;5.40;1.00
506;DHT22;551;48.524;9.056;2023-04-03T04:18:09;5.30;1.00
506;DHT22;551;48.524;9.056;2023-04-03T04:20:35;5.30;1.00
506;DHT22;551;48.524;9.056;2023-04-03T04:23:00;5.30;1.00
506;DHT22;551;48.524;9.056;2023-04-03T04:25:26;5.30;1.00
506;DHT22;551;48.524;9.056;2023-04-03T04:27:51;5.30;1.00
506;DHT22;551;48.524;9.056;2023-04-03T04:30:17;5.30;1.00
506;DHT22;551;48.524;9.056;2023-04-03T04:32:43;5.30;1.00
506;DHT22;551;48.524;9.056;2023-04-03T04:35:08;5.20;1.00
506;DHT22;551;48.524;9.056;2023-04-03T04:37:34;5.30;1.00
506;DHT22;551;48.524;9.056;2023-04-03T04:40:00;5.30;1.00
506;DHT22;551;48.524;9.056;2023-04-03T04:42:26;5.30;1.00
506;DHT22;551;48.524;9.056;2023-04-03T04:44:51;5.30;1.00
506;DHT22;551;48.524;9.056;2023-04-03T04:47:17;5.40;1.00
506;DHT22;551;48.524;9.056;2023-04-03T04:49:42;5.40;1.00
506;DHT22;551;48.524;9.056;2023-04-03T04:52:08;5.30;1.00
506;DHT22;551;48.524;9.056;2023-04-03T04:54:33;5.40;1.00
506;DHT22;551;48.524;9.056;2023-04-03T04:56:59;5.40;1.00
506;DHT22;551;48.524;9.056;2023-04-03T04:59:24;5.40;1.00
506;DHT22;551;48.524;9.056;2023-04-03T05:01:50;5.40;1.00
506;DHT22;551;48.524;9.056;2023-04-03T05:04:16;5.40;1.00
506;DHT22;551;48.524;9.056;2023-04-03T05:06:41;5.40;1.00
506;DHT22;551;48.524;9.056;2023-04-03T05:09:07;5.40;1.00
506;DHT22;551;48.524;9.056;2023-04-03T05:11:33;5.40;1.00
506;DHT22;551;48.524;9.056;2023-04-03T05:13:58;5.40;1.00
506;DHT22;551;48.524;9.056;2023-04-03T05:16:24;5.50;1.00
506;DHT22;551;48.524;9.056;2023-04-03T05:18:50;5.40;1.00
506;DHT22;551;48.524;9.056;2023-04-03T05:21:16;5.50;1.00
506;DHT22;551;48.524;9.056;2023-04-03T05:23:43;5.50;1.00
506;DHT22;551;48.524;9.056;2023-04-03T05:26:09;5.50;1.00
506;DHT22;551;48.524;9.056;2023-04-03T05:28:34;5.50;1.00
506;DHT22;551;48.524;9.056;2023-04-03T05:31:00;5.60;1.00
506;DHT22;551;48.524;9.056;2023-04-03T05:33:26;5.60;1.00
506;DHT22;551;48.524;9.056;2023-04-03T05:35:52;5.60;1.00
506;DHT22;551;48.524;9.056;2023-04-03T05:38:18;5.60;1.00
506;DHT22;551;48.524;9.056;2023-04-03T05:40:44;5.60;1.00
506;DHT22;551;48.524;9.056;2023-04-03T05:43:09;5.60;1.00
506;DHT22;551;48.524;9.056;2023-04-03T05:45:35;5.70;1.00
506;DHT22;551;48.524;9.056;2023-04-03T05:48:01;5.70;1.00
506;DHT22;551;48.524;9.056;2023-04-03T05:50:26;5.80;1.00
506;DHT22;551;48.524;9.056;2023-04-03T05:52:54;5.70;1.00
506;DHT22;551;48.524;9.056;2023-04-03T05:55:20;5.80;1.00
506;DHT22;551;48.524;9.056;2023-04-03T05:57:46;5.90;1.00
506;DHT22;551;48.524;9.056;2023-04-03T06:00:15;5.90;1.00
506;DHT22;551;48.524;9.056;2023-04-03T06:02:42;6.00;1.00
506;DHT22;551;48.524;9.056;2023-04-03T06:05:09;6.00;1.00
506;DHT22;551;48.524;9.056;2023-04-03T06:07:37;6.00;1.00
506;DHT22;551;48.524;9.056;2023-04-03T06:10:04;6.10;1.00
506;DHT22;551;48.524;9.056;2023-04-03T06:12:30;6.10;1.00
506;DHT22;551;48.524;9.056;2023-04-03T06:14:56;6.20;1.00
506;DHT22;551;48.524;9.056;2023-04-03T06:17:21;6.30;1.00
506;DHT22;551;48.524;9.056;2023-04-03T06:19:47;6.40;1.00
506;DHT22;551;48.524;9.056;2023-04-03T06:22:13;6.30;1.00
506;DHT22;551;48.524;9.056;2023-04-03T06:24:39;6.30;1.00
506;DHT22;551;48.524;9.056;2023-04-03T06:27:04;6.40;1.00
506;DHT22;551;48.524;9.056;2023-04-03T06:29:30;6.40;1.00
506;DHT22;551;48.524;9.056;2023-04-03T06:31:56;6.50;1.00
506;DHT22;551;48.524;9.056;2023-04-03T06:34:21;6.50;1.00
506;DHT22;551;48.524;9.056;2023-04-03T06:36:47;6.50;1.00
506;DHT22;551;48.524;9.056;2023-04-03T06:39:19;6.60;1.00
506;DHT22;551;48.524;9.056;2023-04-03T06:41:49;6.60;1.00
506;DHT22;551;48.524;9.056;2023-04-03T06:44:15;6.50;1.00
506;DHT22;551;48.524;9.056;2023-04-03T06:46:42;6.50;1.00
506;DHT22;551;48.524;9.056;2023-04-03T06:49:08;6.50;1.00
506;DHT22;551;48.524;9.056;2023-04-03T06:51:35;6.50;1.00
506;DHT22;551;48.524;9.056;2023-04-03T06:54:01;6.50;1.00
506;DHT22;551;48.524;9.056;2023-04-03T06:56:28;6.70;1.00
506;DHT22;551;48.524;9.056;2023-04-03T06:58:55;6.70;1.00
506;DHT22;551;48.524;9.056;2023-04-03T07:01:22;6.70;1.00
506;DHT22;551;48.524;9.056;2023-04-03T07:03:48;6.60;1.00
506;DHT22;551;48.524;9.056;2023-04-03T07:06:15;6.60;1.00
506;DHT22;551;48.524;9.056;2023-04-03T07:08:42;6.70;1.00
506;DHT22;551;48.524;9.056;2023-04-03T07:11:08;6.80;1.00
506;DHT22;551;48.524;9.056;2023-04-03T07:13:34;6.80;1.00
506;DHT22;551;48.524;9.056;2023-04-03T07:16:00;6.70;1.00
506;DHT22;551;48.524;9.056;2023-04-03T07:18:26;6.80;1.00
506;DHT22;551;48.524;9.056;2023-04-03T07:20:52;6.90;1.00
506;DHT22;551;48.524;9.056;2023-04-03T07:23:18;7.10;1.00
506;DHT22;551;48.524;9.056;2023-04-03T07:25:47;7.30;1.00
506;DHT22;551;48.524;9.056;2023-04-03T07:28:14;7.60;1.00
506;DHT22;551;48.524;9.056;2023-04-03T07:30:50;7.80;1.00
506;DHT22;551;48.524;9.056;2023-04-03T07:33:18;8.10;1.00
506;DHT22;551;48.524;9.056;2023-04-03T07:35:45;8.40;1.00
506;DHT22;551;48.524;9.056;2023-04-03T07:38:10;8.70;1.00
506;DHT22;551;48.524;9.056;2023-04-03T07:40:37;8.90;1.00
506;DHT22;551;48.524;9.056;2023-04-03T07:43:03;9.10;1.00
506;DHT22;551;48.524;9.056;2023-04-03T07:45:29;9.30;1.00
506;DHT22;551;48.524;9.056;2023-04-03T07:47:55;9.60;1.00
506;DHT22;551;48.524;9.056;2023-04-03T07:50:21;9.60;1.00
506;DHT22;551;48.524;9.056;2023-04-03T07:52:47;9.80;1.00
506;DHT22;551;48.524;9.056;2023-04-03T07:55:13;10.00;1.00
506;DHT22;551;48.524;9.056;2023-04-03T07:57:39;10.10;1.00
506;DHT22;551;48.524;9.056;2023-04-03T08:00:06;10.20;1.00
506;DHT22;551;48.524;9.056;2023-04-03T08:02:32;10.40;1.00
506;DHT22;551;48.524;9.056;2023-04-03T08:04:58;10.80;1.00
506;DHT22;551;48.524;9.056;2023-04-03T08:07:24;11.20;1.00
506;DHT22;551;48.524;9.056;2023-04-03T08:09:50;11.40;1.00
506;DHT22;551;48.524;9.056;2023-04-03T08:12:16;11.20;1.00
506;DHT22;551;48.524;9.056;2023-04-03T08:14:41;11.30;1.00
506;DHT22;551;48.524;9.056;2023-04-03T08:17:07;11.00;1.00
506;DHT22;551;48.524;9.056;2023-04-03T08:19:39;11.00;1.00
506;DHT22;551;48.524;9.056;2023-04-03T08:22:05;11.10;1.00
506;DHT22;551;48.524;9.056;2023-04-03T08:24:33;11.10;1.00
506;DHT22;551;48.524;9.056;2023-04-03T08:26:58;11.00;1.00
506;DHT22;551;48.524;9.056;2023-04-03T08:29:24;11.10;1.00
506;DHT22;551;48.524;9.056;2023-04-03T08:31:50;11.00;1.00
506;DHT22;551;48.524;9.056;2023-04-03T08:34:16;11.00;1.00
506;DHT22;551;48.524;9.056;2023-04-03T08:36:43;11.10;1.00
506;DHT22;551;48.524;9.056;2023-04-03T08:39:09;11.00;1.00
506;DHT22;551;48.524;9.056;2023-04-03T08:41:44;11.10;1.00
506;DHT22;551;48.524;9.056;2023-04-03T08:47:16;10.80;1.00
506;DHT22;551;48.524;9.056;2023-04-03T08:49:53;10.60;1.00
506;DHT22;551;48.524;9.056;2023-04-03T08:52:50;10.60;1.00
506;DHT22;551;48.524;9.056;2023-04-03T08:58:02;10.60;1.00
506;DHT22;551;48.524;9.056;2023-04-03T09:00:59;10.80;1.00
506;DHT22;551;48.524;9.056;2023-04-03T09:03:23;11.00;1.00
506;DHT22;551;48.524;9.056;2023-04-03T09:06:10;10.80;1.00
506;DHT22;551;48.524;9.056;2023-04-03T09:11:47;11.10;1.00
506;DHT22;551;48.524;9.056;2023-04-03T09:14:34;11.00;1.00
506;DHT22;551;48.524;9.056;2023-04-03T09:19:54;10.90;1.00
506;DHT22;551;48.524;9.056;2023-04-03T09:22:28;11.30;1.00
506;DHT22;551;48.524;9.056;2023-04-03T09:25:08;11.30;1.00
506;DHT22;551;48.524;9.056;2023-04-03T09:27:35;11.10;1.00
506;DHT22;551;48.524;9.056;2023-04-03T09:30:01;11.30;1.00
506;DHT22;551;48.524;9.056;2023-04-03T09:32:32;11.50;1.00
506;DHT22;551;48.524;9.056;2023-04-03T09:35:19;11.50;1.00
506;DHT22;551;48.524;9.056;2023-04-03T09:37:47;11.60;1.00
506;DHT22;551;48.524;9.056;2023-04-03T09:42:58;11.50;1.00
506;DHT22;551;48.524;9.056;2023-04-03T09:45:32;11.60;1.00
506;DHT22;551;48.524;9.056;2023-04-03T09:53:37;11.10;1.00
506;DHT22;551;48.524;9.056;2023-04-03T09:58:43;10.70;1.00
506;DHT22;551;48.524;9.056;2023-04-03T10:01:31;10.60;1.00
506;DHT22;551;48.524;9.056;2023-04-03T10:04:18;10.60;1.00
506;DHT22;551;48.524;9.056;2023-04-03T10:06:53;10.60;1.00
506;DHT22;551;48.524;9.056;2023-04-03T10:12:05;10.90;1.00
506;DHT22;551;48.524;9.056;2023-04-03T10:14:37;10.70;1.00
506;DHT22;551;48.524;9.056;2023-04-03T10:17:26;10.80;1.00
506;DHT22;551;48.524;9.056;2023-04-03T10:20:04;10.60;1.00
506;DHT22;551;48.524;9.056;2023-04-03T10:25:20;10.40;1.00
506;DHT22;551;48.524;9.056;2023-04-03T10:28:00;10.70;1.00
506;DHT22;551;48.524;9.056;2023-04-03T10:30:58;10.90;1.00
506;DHT22;551;48.524;9.056;2023-04-03T10:39:23;10.80;1.00
506;DHT22;551;48.524;9.056;2023-04-03T10:45:18;11.10;1.00
506;DHT22;551;48.524;9.056;2023-04-03T10:48:01;11.20;1.00
506;DHT22;551;48.524;9.056;2023-04-03T10:53:14;11.30;1.00
506;DHT22;551;48.524;9.056;2023-04-03T10:55:53;11.10;1.00
506;DHT22;551;48.524;9.056;2023-04-03T11:00:55;11.20;1.00
506;DHT22;551;48.524;9.056;2023-04-03T11:03:44;11.40;1.00
506;DHT22;551;48.524;9.056;2023-04-03T11:06:14;11.30;1.00
506;DHT22;551;48.524;9.056;2023-04-03T11:11:13;11.00;1.00
506;DHT22;551;48.524;9.056;2023-04-03T11:13:49;11.00;1.00
506;DHT22;551;48.524;9.056;2023-04-03T11:16:22;11.00;1.00
506;DHT22;551;48.524;9.056;2023-04-03T11:19:20;11.00;1.00
506;DHT22;551;48.524;9.056;2023-04-03T11:21:57;11.10;1.00
506;DHT22;551;48.524;9.056;2023-04-03T11:24:32;11.20;1.00
506;DHT22;551;48.524;9.056;2023-04-03T11:27:00;11.00;1.00
506;DHT22;551;48.524;9.056;2023-04-03T11:29:35;11.20;1.00
506;DHT22;551;48.524;9.056;2023-04-03T11:32:34;11.30;1.00
506;DHT22;551;48.524;9.056;2023-04-03T11:35:07;11.40;1.00
506;DHT22;551;48.524;9.056;2023-04-03T11:37:34;11.30;1.00
506;DHT22;551;48.524;9.056;2023-04-03T11:40:28;11.30;1.00
506;DHT22;551;48.524;9.056;2023-04-03T11:43:04;11.20;1.00
506;DHT22;551;48.524;9.056;2023-04-03T11:50:52;10.70;1.00
506;DHT22;551;48.524;9.056;2023-04-03T11:56:04;10.30;1.00
506;DHT22;551;48.524;9.056;2023-04-03T11:58:33;10.30;1.00
506;DHT22;551;48.524;9.056;2023-04-03T12:01:00;10.30;1.00
506;DHT22;551;48.524;9.056;2023-04-03T12:24:03;10.90;1.00
506;DHT22;551;48.524;9.056;2023-04-03T12:45:22;10.40;1.00
506;DHT22;551;48.524;9.056;2023-04-03T12:47:53;10.40;1.00
506;DHT22;551;48.524;9.056;2023-04-03T12:52:57;10.60;1.00
506;DHT22;551;48.524;9.056;2023-04-03T12:55:24;10.60;1.00
506;DHT22;551;48.524;9.056;2023-04-03T12:57:50;10.80;1.00
506;DHT22;551;48.524;9.056;2023-04-03T13:02:45;10.70;1.00
506;DHT22;551;48.524;9.056;2023-04-03T13:05:17;10.70;1.00
506;DHT22;551;48.524;9.056;2023-04-03T13:07:44;10.70;1.00
506;DHT22;551;48.524;9.056;2023-04-03T13:10:16;10.60;1.00
506;DHT22;551;48.524;9.056;2023-04-03T13:15:21;10.70;1.00
506;DHT22;551;48.524;9.056;2023-04-03T13:17:48;10.80;1.00
506;DHT22;551;48.524;9.056;2023-04-03T13:20:28;11.00;1.00
506;DHT22;551;48.524;9.056;2023-04-03T13:23:01;11.30;1.00
506;DHT22;551;48.524;9.056;2023-04-03T13:25:29;11.30;1.00
506;DHT22;551;48.524;9.056;2023-04-03T13:27:58;11.50;1.00
506;DHT22;551;48.524;9.056;2023-04-03T13:30:35;11.60;1.00
506;DHT22;551;48.524;9.056;2023-04-03T13:33:17;11.40;1.00
506;DHT22;551;48.524;9.056;2023-04-03T13:35:44;11.20;1.00
506;DHT22;551;48.524;9.056;2023-04-03T13:40:58;11.00;1.00
506;DHT22;551;48.524;9.056;2023-04-03T13:43:28;10.70;1.00
506;DHT22;551;48.524;9.056;2023-04-03T13:48:39;10.70;1.00
506;DHT22;551;48.524;9.056;2023-04-03T13:51:18;10.70;1.00
506;DHT22;551;48.524;9.056;2023-04-03T13:53:59;10.90;1.00
506;DHT22;551;48.524;9.056;2023-04-03T13:56:36;11.00;1.00
506;DHT22;551;48.524;9.056;2023-04-03T13:59:05;11.00;1.00
506;DHT22;551;48.524;9.056;2023-04-03T14:01:47;11.00;1.00
506;DHT22;551;48.524;9.056;2023-04-03T14:04:27;11.00;1.00
506;DHT22;551;48.524;9.056;2023-04-03T14:06:54;10.70;1.00
506;DHT22;551;48.524;9.056;2023-04-03T14:09:21;10.50;1.00
506;DHT22;551;48.524;9.056;2023-04-03T14:11:48;10.40;1.00
506;DHT22;551;48.524;9.056;2023-04-03T14:14:19;10.20;1.00
506;DHT22;551;48.524;9.056;2023-04-03T14:16:48;10.30;1.00
506;DHT22;551;48.524;9.056;2023-04-03T14:19:25;10.20;1.00
506;DHT22;551;48.524;9.056;2023-04-03T14:21:54;10.20;1.00
506;DHT22;551;48.524;9.056;2023-04-03T14:24:21;10.20;1.00
506;DHT22;551;48.524;9.056;2023-04-03T14:26:47;10.30;1.00
506;DHT22;551;48.524;9.056;2023-04-03T14:29:14;10.40;1.00
506;DHT22;551;48.524;9.056;2023-04-03T14:31:42;10.40;1.00
506;DHT22;551;48.524;9.056;2023-04-03T14:34:10;10.40;1.00
506;DHT22;551;48.524;9.056;2023-04-03T14:36:35;10.50;1.00
506;DHT22;551;48.524;9.056;2023-04-03T14:39:03;10.40;1.00
506;DHT22;551;48.524;9.056;2023-04-03T14:41:29;10.30;1.00
506;DHT22;551;48.524;9.056;2023-04-03T14:43:54;10.30;1.00
506;DHT22;551;48.524;9.056;2023-04-03T14:46:34;10.40;1.00
506;DHT22;551;48.524;9.056;2023-04-03T14:49:00;10.70;1.00
506;DHT22;551;48.524;9.056;2023-04-03T14:51:26;10.70;1.00
506;DHT22;551;48.524;9.056;2023-04-03T14:53:52;10.70;1.00
506;DHT22;551;48.524;9.056;2023-04-03T14:56:27;10.50;1.00
506;DHT22;551;48.524;9.056;2023-04-03T14:58:59;10.40;1.00
506;DHT22;551;48.524;9.056;2023-04-03T15:01:26;10.30;1.00
506;DHT22;551;48.524;9.056;2023-04-03T15:03:52;10.20;1.00
506;DHT22;551;48.524;9.056;2023-04-03T15:06:18;10.20;1.00
506;DHT22;551;48.524;9.056;2023-04-03T15:08:45;9.90;1.00
506;DHT22;551;48.524;9.056;2023-04-03T15:11:13;9.70;1.00
506;DHT22;551;48.524;9.056;2023-04-03T15:13:39;9.60;1.00
506;DHT22;551;48.524;9.056;2023-04-03T15:16:08;9.60;1.00
506;DHT22;551;48.524;9.056;2023-04-03T15:18:37;9.60;1.00
506;DHT22;551;48.524;9.056;2023-04-03T15:21:04;9.60;1.00
506;DHT22;551;48.524;9.056;2023-04-03T15:23:29;9.60;1.00
506;DHT22;551;48.524;9.056;2023-04-03T15:25:55;9.60;1.00
506;DHT22;551;48.524;9.056;2023-04-03T15:28:29;9.60;1.00
506;DHT22;551;48.524;9.056;2023-04-03T15:30:55;9.70;1.00
506;DHT22;551;48.524;9.056;2023-04-03T15:33:21;9.70;1.00
506;DHT22;551;48.524;9.056;2023-04-03T15:35:46;9.70;1.00
506;DHT22;551;48.524;9.056;2023-04-03T15:38:12;9.70;1.00
506;DHT22;551;48.524;9.056;2023-04-03T15:40:37;9.70;1.00
506;DHT22;551;48.524;9.056;2023-04-03T15:43:04;9.90;1.00
506;DHT22;551;48.524;9.056;2023-04-03T15:45:30;9.90;1.00
506;DHT22;551;48.524;9.056;2023-04-03T15:47:57;10.00;1.00
506;DHT22;551;48.524;9.056;2023-04-03T15:50:23;9.90;1.00
506;DHT22;551;48.524;9.056;2023-04-03T15:52:52;9.90;1.00
506;DHT22;551;48.524;9.056;2023-04-03T15:55:25;9.70;1.00
506;DHT22;551;48.524;9.056;2023-04-03T15:57:52;9.60;1.00
506;DHT22;551;48.524;9.056;2023-04-03T16:00:17;9.50;1.00
506;DHT22;551;48.524;9.056;2023-04-03T16:02:45;9.40;1.00
506;DHT22;551;48.524;9.056;2023-04-03T16:05:12;9.40;1.00
506;DHT22;551;48.524;9.056;2023-04-03T16:07:39;9.30;1.00
506;DHT22;551;48.524;9.056;2023-04-03T16:10:06;9.40;1.00
506;DHT22;551;48.524;9.056;2023-04-03T16:12:32;9.40;1.00
506;DHT22;551;48.524;9.056;2023-04-03T16:14:58;9.50;1.00
506;DHT22;551;48.524;9.056;2023-04-03T16:17:23;9.50;1.00
506;DHT22;551;48.524;9.056;2023-04-03T16:19:49;9.40;1.00
506;DHT22;551;48.524;9.056;2023-04-03T16:22:15;9.40;1.00
506;DHT22;551;48.524;9.056;2023-04-03T16:24:40;9.40;1.00
506;DHT22;551;48.524;9.056;2023-04-03T16:27:06;9.30;1.00
506;DHT22;551;48.524;9.056;2023-04-03T16:29:31;9.30;1.00
506;DHT22;551;48.524;9.056;2023-04-03T16:31:58;9.20;1.00
506;DHT22;551;48.524;9.056;2023-04-03T16:34:24;9.30;1.00
506;DHT22;551;48.524;9.056;2023-04-03T16:36:51;9.30;1.00
506;DHT22;551;48.524;9.056;2023-04-03T16:39:18;9.20;1.00
506;DHT22;551;48.524;9.056;2023-04-03T16:41:43;9.20;1.00
506;DHT22;551;48.524;9.056;2023-04-03T16:44:09;9.20;1.00
506;DHT22;551;48.524;9.056;2023-04-03T16:46:34;9.20;1.00
506;DHT22;551;48.524;9.056;2023-04-03T16:49:00;9.00;1.00
506;DHT22;551;48.524;9.056;2023-04-03T16:51:26;8.90;1.00
506;DHT22;551;48.524;9.056;2023-04-03T16:53:51;8.90;1.00
506;DHT22;551;48.524;9.056;2023-04-03T16:56:17;8.80;1.00
506;DHT22;551;48.524;9.056;2023-04-03T16:58:42;8.70;1.00
506;DHT22;551;48.524;9.056;2023-04-03T17:01:13;8.70;1.00
506;DHT22;551;48.524;9.056;2023-04-03T17:03:39;8.60;1.00
506;DHT22;551;48.524;9.056;2023-04-03T17:06:05;8.50;1.00
506;DHT22;551;48.524;9.056;2023-04-03T17:08:31;8.40;1.00
506;DHT22;551;48.524;9.056;2023-04-03T17:10:56;8.40;1.00
506;DHT22;551;48.524;9.056;2023-04-03T17:13:22;8.30;1.00
506;DHT22;551;48.524;9.056;2023-04-03T17:15:47;8.20;1.00
506;DHT22;551;48.524;9.056;2023-04-03T17:18:13;8.10;1.00
506;DHT22;551;48.524;9.056;2023-04-03T17:20:39;8.10;1.00
506;DHT22;551;48.524;9.056;2023-04-03T17:23:05;8.00;1.00
506;DHT22;551;48.524;9.056;2023-04-03T17:25:31;8.00;1.00
506;DHT22;551;48.524;9.056;2023-04-03T17:27:56;8.00;1.00
506;DHT22;551;48.524;9.056;2023-04-03T17:30:22;8.00;1.00
506;DHT22;551;48.524;9.056;2023-04-03T17:32:48;7.90;1.00
506;DHT22;551;48.524;9.056;2023-04-03T17:35:13;7.80;1.00
506;DHT22;551;48.524;9.056;2023-04-03T17:37:39;7.80;1.00
506;DHT22;551;48.524;9.056;2023-04-03T17:40:05;7.70;1.00
506;DHT22;551;48.524;9.056;2023-04-03T17:42:31;7.70;1.00
506;DHT22;551;48.524;9.056;2023-04-03T17:44:57;7.70;1.00
506;DHT22;551;48.524;9.056;2023-04-03T17:47:22;7.60;1.00
506;DHT22;551;48.524;9.056;2023-04-03T17:49:50;7.70;1.00
506;DHT22;551;48.524;9.056;2023-04-03T17:52:15;7.60;1.00
506;DHT22;551;48.524;9.056;2023-04-03T17:54:41;7.70;1.00
506;DHT22;551;48.524;9.056;2023-04-03T17:57:07;7.60;1.00
506;DHT22;551;48.524;9.056;2023-04-03T17:59:33;7.50;1.00
506;DHT22;551;48.524;9.056;2023-04-03T18:01:59;7.50;1.00
506;DHT22;551;48.524;9.056;2023-04-03T18:04:24;7.40;1.00
506;DHT22;551;48.524;9.056;2023-04-03T18:06:52;7.30;1.00
506;DHT22;551;48.524;9.056;2023-04-03T18:09:23;7.20;1.00
506;DHT22;551;48.524;9.056;2023-04-03T18:11:50;7.20;1.00
506;DHT22;551;48.524;9.056;2023-04-03T18:14:22;7.00;1.00
506;DHT22;551;48.524;9.056;2023-04-03T18:16:49;6.90;1.00
506;DHT22;551;48.524;9.056;2023-04-03T18:19:14;6.90;1.00
506;DHT22;551;48.524;9.056;2023-04-03T18:21:40;6.70;1.00
506;DHT22;551;48.524;9.056;2023-04-03T18:24:11;6.60;1.00
506;DHT22;551;48.524;9.056;2023-04-03T18:26:37;6.50;1.00
506;DHT22;551;48.524;9.056;2023-04-03T18:29:05;6.50;1.00
506;DHT22;551;48.524;9.056;2023-04-03T18:31:34;6.40;1.00
506;DHT22;551;48.524;9.056;2023-04-03T18:34:01;6.40;1.00
506;DHT22;551;48.524;9.056;2023-04-03T18:36:27;6.50;1.00
506;DHT22;551;48.524;9.056;2023-04-03T18:38:54;6.50;1.00
506;DHT22;551;48.524;9.056;2023-04-03T18:41:24;6.50;1.00
506;DHT22;551;48.524;9.056;2023-04-03T18:43:52;6.40;1.00
506;DHT22;551;48.524;9.056;2023-04-03T18:46:19;6.40;1.00
506;DHT22;551;48.524;9.056;2023-04-03T18:48:44;6.30;1.00
506;DHT22;551;48.524;9.056;2023-04-03T18:51:12;6.30;1.00
506;DHT22;551;48.524;9.056;2023-04-03T18:53:38;6.20;1.00
506;DHT22;551;48.524;9.056;2023-04-03T18:56:04;6.20;1.00
506;DHT22;551;48.524;9.056;2023-04-03T18:58:29;6.20;1.00
506;DHT22;551;48.524;9.056;2023-04-03T19:00:57;6.20;1.00
506;DHT22;551;48.524;9.056;2023-04-03T19:03:23;6.20;1.00